Forside
METAR-TAF:

METAR-TAF

Lufthavne :

Malden, Missouri, USA

Breddekreds: 36-35-54N, længdekreds: 089-59-33W, højde: 90 m

Aktuelle vejr

Denne rapport blev lavet for 24 minutter siden, kl. 17:15 UTC
Vind 8 kt fra øst
Temperatur -2°C
Fugtighed 74%
Tryk 1033 hPa
Sigt: 16.1 km
Brudte skyer i en højde af 1700 ft

METAR: KMAW 211715Z AUTO 10008KT 10SM BKN017 M02/M06 A3049 RMK AO2

Tid: 11:39 (17:39 UTC)


TAF: fraværende

Vejrobservationer og prognoser fra mere end 4000 lufthavne (METAR og TAF).

De gule og røde prikker repræsenterer de meteorologiske stationer.

Flyt musen over at se navnet på stationen.

Så klik over at se vejr observationer og prognoser.

At skifte det kort: Klik på de grønne knapper med et sort kors for at zoome ind; på den grønne knap med en bindestreg for at zoome ud; eller på de grønne pile for tilstødende kort.


METAR-TAF: